PCF weather

Potchefstroom Airport
Potchefstroom, North-West, South Africa

Public forecast

Using degrees Celsius for public forecast. Weather courtesy of forecast.io.

METAR (pilot weather report)

Report is more than 6 hours old.

Retrieved 2013/07/12 07:00 UTC (6 years ago):

FAPS 120700Z AUTO 08002KT //// // ////// 11/// Q1032

TAF (pilot weather forecast)

Forecast is more than 12 hours old.

Closest forecast is Lanseria Airport, 63.2 nm (117.1 km) NE. Retrieved 2019/05/19 00:00 UTC (1 day ago):

TAF FALA 192200Z 2000/2024 VRB03KT CAVOK TX24/2013Z TN08/2005Z BECMG 2009/2011 32008KT BECMG 2019/2021 VRB03KT